Time;durP1;ratioP1;P1;durP2;ratioP2;P2;SDS_P1;SDS_P2;PMS_P1;PMS_P2;Temp;Humidity;BMP_temperature;BMP_pressure;BME280_temperature;BME280_humidity;BME280_pressure;Samples;Min_cycle;Max_cycle;Signal;HPM_P1;HPM_P2
2021/04/15 00:00:22;;;;;;;11.65;8.73;;;4.60;99.90;;;;;;5034006;28;20219;-73
2021/04/15 00:02:48;;;;;;;12.73;9.18;;;4.60;99.90;;;;;;5050343;28;20232;-74
2021/04/15 00:05:28;;;;;;;9.65;8.70;;;4.60;99.90;;;;;;5036656;28;20208;-74
2021/04/15 00:07:56;;;;;;;9.68;8.65;;;4.60;99.90;;;;;;5053580;28;20757;-73
2021/04/15 00:10:38;;;;;;;11.15;9.00;;;4.50;99.90;;;;;;5033051;28;20244;-74
2021/04/15 00:13:10;;;;;;;10.38;9.25;;;4.50;99.90;;;;;;5034681;28;20232;-73
2021/04/15 00:15:36;;;;;;;11.25;9.07;;;4.50;99.90;;;;;;5033280;28;20223;-73
2021/04/15 00:18:02;;;;;;;10.50;9.45;;;4.50;99.90;;;;;;5049877;28;20288;-73
2021/04/15 00:20:29;;;;;;;12.32;9.63;;;4.50;99.90;;;;;;5049145;28;20271;-73
2021/04/15 00:22:57;;;;;;;11.32;9.77;;;4.50;99.90;;;;;;5034549;28;20292;-74
2021/04/15 00:25:24;;;;;;;12.45;9.45;;;4.50;99.90;;;;;;5033242;28;20287;-73
2021/04/15 00:27:53;;;;;;;12.48;9.30;;;4.50;99.90;;;;;;5033184;28;20205;-74
2021/04/15 00:30:21;;;;;;;13.00;9.50;;;4.50;99.90;;;;;;5035892;28;20212;-75
2021/04/15 00:32:47;;;;;;;9.93;8.15;;;4.60;99.90;;;;;;5033181;28;20205;-73
2021/04/15 00:35:15;;;;;;;15.15;9.18;;;4.60;99.90;;;;;;5048692;28;20212;-74
2021/04/15 00:37:41;;;;;;;9.98;8.93;;;4.60;99.90;;;;;;5033759;28;20205;-73
2021/04/15 00:40:09;;;;;;;10.98;8.88;;;4.70;99.90;;;;;;5033920;28;20506;-72
2021/04/15 00:42:36;;;;;;;15.95;9.38;;;4.70;99.90;;;;;;5032022;28;20233;-73
2021/04/15 00:45:12;;;;;;;13.48;10.48;;;4.70;99.90;;;;;;5032261;28;20197;-74
2021/04/15 00:47:41;;;;;;;13.50;9.85;;;4.70;99.90;;;;;;5048900;28;20235;-74
2021/04/15 00:50:25;;;;;;;14.40;9.98;;;4.60;99.90;;;;;;5016071;28;20717;-74
2021/04/15 00:52:57;;;;;;;16.17;9.63;;;4.60;99.90;;;;;;5032965;28;20225;-75
2021/04/15 00:55:28;;;;;;;16.05;10.13;;;4.60;99.90;;;;;;5033269;28;20280;-74
2021/04/15 00:57:56;;;;;;;10.73;8.98;;;4.60;99.90;;;;;;5033942;28;20235;-75
2021/04/15 01:00:27;;;;;;;12.75;9.80;;;4.60;99.90;;;;;;5032425;28;20217;-74
2021/04/15 01:02:55;;;;;;;13.13;9.35;;;4.70;99.90;;;;;;5033825;28;20287;-74
2021/04/15 01:05:30;;;;;;;14.07;11.40;;;4.60;99.90;;;;;;5034978;28;20228;-75
2021/04/15 01:07:56;;;;;;;12.07;9.43;;;4.70;99.90;;;;;;5052282;28;20298;-75
2021/04/15 01:10:24;;;;;;;12.80;9.98;;;4.70;99.90;;;;;;5036488;28;20281;-74
2021/04/15 01:13:02;;;;;;;12.23;10.23;;;4.80;99.90;;;;;;5033412;28;20301;-74
2021/04/15 01:15:58;;;;;;;14.05;9.23;;;4.70;99.90;;;;;;5047507;28;20213;-73
2021/04/15 01:18:36;;;;;;;17.40;9.93;;;4.70;99.90;;;;;;5032311;28;20212;-75
2021/04/15 01:21:22;;;;;;;15.82;8.85;;;4.60;99.90;;;;;;5031146;28;20235;-75
2021/04/15 01:24:09;;;;;;;9.38;8.48;;;4.60;99.90;;;;;;5032799;28;20221;-74
2021/04/15 01:27:05;;;;;;;15.38;9.82;;;4.60;99.90;;;;;;5031753;28;20299;-74
2021/04/15 01:29:52;;;;;;;12.60;10.25;;;4.50;99.90;;;;;;5048482;28;20525;-74
2021/04/15 01:32:18;;;;;;;13.52;9.05;;;4.40;99.90;;;;;;5032540;28;20239;-73
2021/04/15 01:34:54;;;;;;;16.50;8.82;;;4.40;99.90;;;;;;5033107;28;20623;-73
2021/04/15 01:37:30;;;;;;;13.20;8.38;;;4.30;99.90;;;;;;5031046;28;20239;-75
2021/04/15 01:40:29;;;;;;;12.00;9.05;;;4.20;99.90;;;;;;5032815;28;20189;-74
2021/04/15 01:43:10;;;;;;;14.52;9.43;;;4.20;99.90;;;;;;5035684;28;20213;-73
2021/04/15 01:45:37;;;;;;;15.63;8.98;;;4.10;99.90;;;;;;5031289;28;20697;-74
2021/04/15 01:48:09;;;;;;;12.02;8.30;;;4.10;99.90;;;;;;5048194;28;20219;-72
2021/04/15 01:50:53;;;;;;;14.13;10.13;;;4.10;99.90;;;;;;5047512;28;20749;-74
2021/04/15 01:53:28;;;;;;;10.02;8.57;;;4.00;99.90;;;;;;5031839;28;20259;-74
2021/04/15 01:56:09;;;;;;;10.13;7.88;;;4.00;99.90;;;;;;5030685;28;20572;-74
2021/04/15 01:58:40;;;;;;;8.88;7.40;;;3.90;99.90;;;;;;5031285;28;20208;-72
2021/04/15 02:01:10;;;;;;;8.93;7.18;;;3.90;99.90;;;;;;5030232;28;20583;-76
2021/04/15 02:03:39;;;;;;;9.10;7.45;;;3.80;99.90;;;;;;5032757;28;20259;-75
2021/04/15 02:06:10;;;;;;;10.73;8.30;;;3.80;99.90;;;;;;5050103;28;20221;-75
2021/04/15 02:08:43;;;;;;;9.15;7.78;;;3.80;99.90;;;;;;5046549;28;20214;-75
2021/04/15 02:11:32;;;;;;;8.73;7.93;;;3.70;99.90;;;;;;5031706;28;20240;-74
2021/04/15 02:14:00;;;;;;;11.63;7.60;;;3.70;99.90;;;;;;5030943;28;20217;-75
2021/04/15 02:16:29;;;;;;;12.63;7.63;;;3.60;99.90;;;;;;5031363;28;20579;-73
2021/04/15 02:19:07;;;;;;;8.95;7.60;;;3.50;99.90;;;;;;5032329;28;20307;-74
2021/04/15 02:21:58;;;;;;;11.90;8.55;;;3.50;99.90;;;;;;5046960;28;20224;-73
2021/04/15 02:24:40;;;;;;;9.27;7.28;;;3.40;99.90;;;;;;5030671;28;20201;-75
2021/04/15 02:27:30;;;;;;;10.20;9.00;;;3.40;99.90;;;;;;5031165;28;20221;-73
2021/04/15 02:30:16;;;;;;;11.18;9.68;;;3.30;99.90;;;;;;5030843;28;20713;-73
2021/04/15 02:33:16;;;;;;;10.05;8.65;;;3.20;99.90;;;;;;5031603;28;20299;-73
2021/04/15 02:35:47;;;;;;;13.15;9.27;;;3.10;99.90;;;;;;5031448;28;20259;-73
2021/04/15 02:38:22;;;;;;;11.20;8.68;;;3.10;99.90;;;;;;5031292;28;20201;-73
2021/04/15 02:40:53;;;;;;;11.73;7.88;;;3.10;99.90;;;;;;5031614;28;20649;-74
2021/04/15 02:43:29;;;;;;;12.93;10.02;;;3.00;99.90;;;;;;5030526;28;20607;-72
2021/04/15 02:45:58;;;;;;;11.68;9.48;;;3.00;99.90;;;;;;5031372;28;20282;-73
2021/04/15 02:48:33;;;;;;;10.63;9.52;;;3.10;99.90;;;;;;5031487;28;20211;-74
2021/04/15 02:51:03;;;;;;;13.25;9.75;;;3.00;99.90;;;;;;5031187;28;20220;-75
2021/04/15 02:53:51;;;;;;;10.13;8.70;;;3.00;99.90;;;;;;5031916;28;20241;-73
2021/04/15 02:56:26;;;;;;;13.07;10.00;;;3.00;99.90;;;;;;5030030;28;20691;-72
2021/04/15 02:59:32;;;;;;;14.18;10.00;;;3.00;99.90;;;;;;5031898;28;20555;-73
2021/04/15 03:02:04;;;;;;;11.30;8.77;;;3.00;99.90;;;;;;5030252;28;20239;-73
2021/04/15 03:04:34;;;;;;;9.38;8.35;;;2.90;99.90;;;;;;5041573;28;20214;-72
2021/04/15 03:07:03;;;;;;;16.88;10.75;;;3.00;99.90;;;;;;5034014;28;20278;-73
2021/04/15 03:09:36;;;;;;;16.88;9.98;;;3.00;99.90;;;;;;5030346;28;20641;-75
2021/04/15 03:12:15;;;;;;;11.27;9.68;;;3.00;99.90;;;;;;5030111;28;20251;-77
2021/04/15 03:14:53;;;;;;;11.90;9.63;;;3.00;99.90;;;;;;5029923;28;20256;-73
2021/04/15 03:17:22;;;;;;;15.07;11.75;;;3.10;99.90;;;;;;5030892;28;20229;-73
2021/04/15 03:20:00;;;;;;;9.90;8.90;;;3.10;99.90;;;;;;5031580;28;20200;-75
2021/04/15 03:22:46;;;;;;;10.85;9.68;;;3.30;99.90;;;;;;5029680;28;20314;-74
2021/04/15 03:25:13;;;;;;;13.85;10.00;;;3.30;99.90;;;;;;5032408;28;20208;-73
2021/04/15 03:28:03;;;;;;;10.23;9.13;;;3.20;99.90;;;;;;5029624;28;20229;-73
2021/04/15 03:30:43;;;;;;;12.38;10.02;;;3.20;99.90;;;;;;5031274;28;20189;-75
2021/04/15 03:33:14;;;;;;;15.75;11.13;;;3.20;99.90;;;;;;5013719;28;20216;-73
2021/04/15 03:35:52;;;;;;;13.13;9.95;;;3.30;99.90;;;;;;5029372;28;20663;-77
2021/04/15 03:38:26;;;;;;;12.52;10.32;;;3.40;99.90;;;;;;5046532;28;20283;-73
2021/04/15 03:40:58;;;;;;;13.57;10.73;;;3.50;99.90;;;;;;5030172;28;20225;-74
2021/04/15 03:43:30;;;;;;;12.70;10.00;;;3.50;99.90;;;;;;5030084;28;20634;-74
2021/04/15 03:46:21;;;;;;;12.57;9.85;;;3.40;99.90;;;;;;5029185;28;20687;-73
2021/04/15 03:48:57;;;;;;;14.35;10.75;;;3.30;99.90;;;;;;5031953;28;20324;-73
2021/04/15 03:51:26;;;;;;;10.70;9.60;;;3.30;99.90;;;;;;5032995;28;20251;-73
2021/04/15 03:53:58;;;;;;;14.18;10.85;;;3.30;99.90;;;;;;5033413;28;20303;-74
2021/04/15 03:56:46;;;;;;;21.75;10.60;;;3.30;99.90;;;;;;5033038;28;20703;-75
2021/04/15 03:59:34;;;;;;;14.65;11.32;;;3.20;99.90;;;;;;5034564;28;20232;-73
2021/04/15 04:02:05;;;;;;;11.20;10.02;;;3.20;99.90;;;;;;5034306;28;20225;-74
2021/04/15 04:04:54;;;;;;;17.33;10.38;;;3.20;99.90;;;;;;5049804;28;20202;-72
2021/04/15 04:07:45;;;;;;;11.15;10.00;;;3.20;99.90;;;;;;5053664;28;20337;-73
2021/04/15 04:10:17;;;;;;;16.02;10.40;;;3.20;99.90;;;;;;5039104;28;20236;-73
2021/04/15 04:13:00;;;;;;;13.70;11.15;;;3.30;99.90;;;;;;5033438;28;20631;-75
2021/04/15 04:15:30;;;;;;;13.85;10.70;;;3.30;99.90;;;;;;5050665;28;20217;-75
2021/04/15 04:18:06;;;;;;;14.07;12.02;;;3.30;99.90;;;;;;5033550;28;20216;-74
2021/04/15 04:20:36;;;;;;;15.23;11.15;;;3.30;99.90;;;;;;5034460;28;20181;-74
2021/04/15 04:24:02;;;;;;;13.82;12.45;;;3.30;99.90;;;;;;5033261;28;20295;-73
2021/04/15 04:26:47;;;;;;;13.38;10.60;;;3.30;99.90;;;;;;4995245;28;20313;-76
2021/04/15 04:29:30;;;;;;;13.27;10.73;;;3.30;99.90;;;;;;5012231;28;20210;-75
2021/04/15 04:32:01;;;;;;;16.08;12.23;;;3.20;99.90;;;;;;5032837;28;20224;-75
2021/04/15 04:34:29;;;;;;;12.90;10.77;;;3.20;99.90;;;;;;5033962;28;20240;-74
2021/04/15 04:36:56;;;;;;;20.80;11.95;;;3.20;99.90;;;;;;5033732;28;20239;-75
2021/04/15 04:39:26;;;;;;;15.35;13.65;;;3.20;99.90;;;;;;5033826;28;20574;-74
2021/04/15 04:42:05;;;;;;;18.80;12.38;;;3.20;99.90;;;;;;5033938;28;20283;-75
2021/04/15 04:44:53;;;;;;;27.20;11.38;;;3.30;99.90;;;;;;5034076;28;20255;-74
2021/04/15 04:47:50;;;;;;;17.73;11.80;;;3.20;99.90;;;;;;5033739;28;20481;-73
2021/04/15 04:50:32;;;;;;;13.65;11.15;;;3.20;99.90;;;;;;5032442;28;20571;-76
2021/04/15 04:53:08;;;;;;;15.18;11.55;;;3.20;99.90;;;;;;5034011;28;20215;-74
2021/04/15 04:56:07;;;;;;;14.85;11.55;;;3.10;99.90;;;;;;5033016;28;20224;-73
2021/04/15 04:58:35;;;;;;;16.33;12.43;;;3.00;99.90;;;;;;5032454;28;20247;-72
2021/04/15 05:01:02;;;;;;;15.00;11.02;;;3.00;99.90;;;;;;5032953;28;20227;-74
2021/04/15 05:03:31;;;;;;;12.93;11.02;;;2.90;99.90;;;;;;5032701;28;20201;-73
2021/04/15 05:06:07;;;;;;;13.45;10.88;;;3.00;99.90;;;;;;5031464;28;20227;-74
2021/04/15 05:08:58;;;;;;;13.10;10.68;;;2.90;99.90;;;;;;5033524;28;20213;-73
2021/04/15 05:11:30;;;;;;;16.00;11.93;;;2.80;99.90;;;;;;5048116;28;20225;-75
2021/04/15 05:13:58;;;;;;;14.68;11.20;;;2.80;99.90;;;;;;5015854;28;20237;-74
2021/04/15 05:16:32;;;;;;;12.93;11.68;;;2.70;99.90;;;;;;5031782;28;20224;-74
2021/04/15 05:18:59;;;;;;;13.40;11.73;;;2.80;99.90;;;;;;5033377;28;20301;-72
2021/04/15 05:21:29;;;;;;;15.10;11.95;;;2.80;99.90;;;;;;5032568;28;20713;-72
2021/04/15 05:24:14;;;;;;;17.95;12.77;;;2.90;99.90;;;;;;5048540;28;20464;-72
2021/04/15 05:26:45;;;;;;;14.75;11.93;;;2.90;99.90;;;;;;5032446;28;20614;-72
2021/04/15 05:29:22;;;;;;;13.10;11.25;;;3.10;99.90;;;;;;5033258;28;20250;-75
2021/04/15 05:31:52;;;;;;;15.57;12.68;;;3.20;99.90;;;;;;5032288;28;20721;-74
2021/04/15 05:34:40;;;;;;;10.70;9.65;;;3.40;99.90;;;;;;5033109;28;20293;-73
2021/04/15 05:37:16;;;;;;;13.70;10.90;;;3.60;99.90;;;;;;5030798;28;20217;-74
2021/04/15 05:39:43;;;;;;;13.73;10.05;;;3.90;99.90;;;;;;5044082;28;20212;-73
2021/04/15 05:42:35;;;;;;;13.68;10.27;;;4.30;99.90;;;;;;5052036;28;20308;-73
2021/04/15 05:45:15;;;;;;;12.68;10.05;;;4.50;99.90;;;;;;5034282;28;20617;-76
2021/04/15 05:47:55;;;;;;;15.57;11.65;;;4.70;99.90;;;;;;5047721;28;20727;-73
2021/04/15 05:50:24;;;;;;;12.63;11.25;;;4.70;99.90;;;;;;5032145;28;20211;-74
2021/04/15 05:53:06;;;;;;;13.77;10.38;;;4.70;99.90;;;;;;5048033;28;20212;-73
2021/04/15 05:55:42;;;;;;;15.15;11.68;;;4.80;99.90;;;;;;5047490;28;20684;-73
2021/04/15 05:58:30;;;;;;;16.60;11.15;;;4.90;99.90;;;;;;5031636;28;20219;-75
2021/04/15 06:01:15;;;;;;;13.70;12.13;;;4.80;99.90;;;;;;5046185;28;20315;-77
2021/04/15 06:04:01;;;;;;;13.45;11.60;;;4.70;99.90;;;;;;5051299;28;20189;-74
2021/04/15 06:06:46;;;;;;;16.73;13.02;;;4.70;99.90;;;;;;5036248;28;20230;-73
2021/04/15 06:09:13;;;;;;;16.38;12.93;;;4.70;99.90;;;;;;5036153;28;20216;-73
2021/04/15 06:11:55;;;;;;;20.77;13.15;;;4.60;99.90;;;;;;5049466;28;20217;-76
2021/04/15 06:14:25;;;;;;;20.33;13.25;;;4.60;99.90;;;;;;5050506;28;20248;-73
2021/04/15 06:17:21;;;;;;;17.10;12.60;;;4.60;99.90;;;;;;5043536;28;20216;-75
2021/04/15 06:20:09;;;;;;;15.85;13.60;;;4.50;99.90;;;;;;5051020;28;20697;-73
2021/04/15 06:22:45;;;;;;;13.55;12.10;;;4.50;99.90;;;;;;5051532;28;20244;-74
2021/04/15 06:25:22;;;;;;;15.35;13.75;;;4.60;99.90;;;;;;5022690;28;20218;-74
2021/04/15 06:27:49;;;;;;;16.40;13.90;;;4.70;99.90;;;;;;5031939;28;20617;-73
2021/04/15 06:30:23;;;;;;;13.98;11.68;;;4.90;99.90;;;;;;5031646;28;20209;-73
2021/04/15 06:33:04;;;;;;;15.00;11.35;;;5.20;99.90;;;;;;5033728;28;20183;-74
2021/04/15 06:35:33;;;;;;;13.98;10.23;;;5.70;99.90;;;;;;5049779;28;20223;-73
2021/04/15 06:38:07;;;;;;;13.57;11.70;;;6.20;99.90;;;;;;5034049;28;20444;-75
2021/04/15 06:41:08;;;;;;;11.88;10.35;;;6.50;99.90;;;;;;5034075;28;20221;-74
2021/04/15 06:44:01;;;;;;;14.27;11.20;;;7.10;99.90;;;;;;5030612;28;20189;-74
2021/04/15 06:47:05;;;;;;;12.52;11.32;;;7.70;99.90;;;;;;5030793;28;20225;-74
2021/04/15 06:49:49;;;;;;;14.63;9.95;;;7.90;99.90;;;;;;5031726;28;20619;-75
2021/04/15 06:52:30;;;;;;;11.50;10.40;;;8.20;99.90;;;;;;5022900;28;20629;-75
2021/04/15 06:55:12;;;;;;;11.63;9.67;;;8.40;99.90;;;;;;5046482;28;20463;-74
2021/04/15 06:58:08;;;;;;;11.20;9.60;;;8.40;99.90;;;;;;5031158;28;20547;-75
2021/04/15 07:00:53;;;;;;;11.17;9.97;;;8.60;99.90;;;;;;5035151;28;20463;-75
2021/04/15 07:03:38;;;;;;;11.07;9.83;;;8.90;99.90;;;;;;5031738;28;20465;-75
2021/04/15 07:06:11;;;;;;;13.67;9.37;;;9.20;99.90;;;;;;5046225;28;21027;-73
2021/04/15 07:08:44;;;;;;;12.27;10.80;;;9.30;99.90;;;;;;5031636;28;20526;-74
2021/04/15 07:11:16;;;;;;;11.50;10.23;;;9.40;99.90;;;;;;5029721;28;20826;-74
2021/04/15 07:14:05;;;;;;;12.67;9.90;;;9.70;99.90;;;;;;5031765;28;20524;-74
2021/04/15 07:16:51;;;;;;;11.60;10.40;;;9.60;99.90;;;;;;5030639;28;20463;-73
2021/04/15 07:19:31;;;;;;;11.53;9.73;;;9.50;99.90;;;;;;5046690;28;20422;-75
2021/04/15 07:22:18;;;;;;;15.03;9.30;;;9.50;99.90;;;;;;5030686;28;20484;-74
2021/04/15 07:24:57;;;;;;;12.47;10.30;;;9.40;99.90;;;;;;5046479;28;20461;-74
2021/04/15 07:27:41;;;;;;;10.23;9.13;;;9.60;99.90;;;;;;5035959;28;20465;-73
2021/04/15 07:30:23;;;;;;;11.87;9.40;;;9.90;99.90;;;;;;5048577;28;20462;-73
2021/04/15 07:33:04;;;;;;;13.30;10.27;;;10.50;99.90;;;;;;5034269;28;20543;-73
2021/04/15 07:36:11;;;;;;;10.77;9.80;;;10.40;99.90;;;;;;5036851;28;20481;-73
2021/04/15 07:39:14;;;;;;;11.70;9.57;;;10.90;99.90;;;;;;5039086;28;20451;-73
2021/04/15 07:42:18;;;;;;;14.63;10.17;;;11.00;99.80;;;;;;5032729;28;20499;-75
2021/04/15 07:44:54;;;;;;;11.07;9.97;;;11.30;99.30;;;;;;5034742;28;20446;-72
2021/04/15 07:47:36;;;;;;;10.70;9.60;;;11.30;98.80;;;;;;5033125;28;20458;-72
2021/04/15 07:50:39;;;;;;;13.27;10.27;;;11.00;99.80;;;;;;5033635;28;21002;-72
2021/04/15 07:53:24;;;;;;;13.37;10.90;;;11.00;99.40;;;;;;5034985;28;20468;-72
2021/04/15 07:56:12;;;;;;;12.00;10.37;;;10.60;99.70;;;;;;5032678;28;20811;-73
2021/04/15 07:58:44;;;;;;;15.10;10.50;;;10.40;99.90;;;;;;5017099;28;20421;-73
2021/04/15 08:01:27;;;;;;;13.50;10.50;;;10.50;99.90;;;;;;5062214;28;20473;-73
2021/04/15 08:04:00;;;;;;;12.00;10.83;;;10.80;99.90;;;;;;5052370;28;20446;-73
2021/04/15 08:06:38;;;;;;;13.10;11.57;;;11.10;99.70;;;;;;5016857;28;20482;-72
2021/04/15 08:09:38;;;;;;;13.17;11.47;;;11.30;97.40;;;;;;5040857;28;20593;-73
2021/04/15 08:12:20;;;;;;;11.70;10.50;;;11.10;97.30;;;;;;5052914;28;20459;-72
2021/04/15 08:15:01;;;;;;;11.20;10.07;;;10.90;97.50;;;;;;5050136;28;20447;-73
2021/04/15 08:17:33;;;;;;;13.77;9.93;;;11.40;96.00;;;;;;5032679;28;20468;-72
2021/04/15 08:20:35;;;;;;;11.90;10.20;;;11.20;96.10;;;;;;5033295;28;20436;-76
2021/04/15 08:23:29;;;;;;;14.03;10.30;;;11.30;95.80;;;;;;5024963;28;20506;-75
2021/04/15 08:26:23;;;;;;;9.80;8.90;;;11.30;95.80;;;;;;5033884;28;20556;-73
2021/04/15 08:29:27;;;;;;;12.57;9.37;;;10.70;97.30;;;;;;5034769;28;20432;-72
2021/04/15 08:32:02;;;;;;;13.03;10.80;;;10.00;99.80;;;;;;5020172;28;20447;-74
2021/04/15 08:34:35;;;;;;;15.30;11.33;;;9.80;99.90;;;;;;5034467;28;20825;-73
2021/04/15 08:37:20;;;;;;;12.97;9.60;;;9.50;99.90;;;;;;5033648;28;20510;-76
2021/04/15 08:40:14;;;;;;;12.67;10.63;;;9.00;99.90;;;;;;5034287;28;20526;-73
2021/04/15 08:42:50;;;;;;;13.13;11.20;;;9.00;99.90;;;;;;5049270;28;20479;-73
2021/04/15 08:45:27;;;;;;;13.37;9.60;;;9.60;99.90;;;;;;5049186;28;20459;-75
2021/04/15 08:48:02;;;;;;;11.13;9.13;;;10.30;99.90;;;;;;5049377;28;20455;-71
2021/04/15 08:50:49;;;;;;;15.23;10.87;;;10.20;99.90;;;;;;5032385;28;20779;-73
2021/04/15 08:53:47;;;;;;;15.80;10.60;;;9.90;99.90;;;;;;5033916;28;20478;-73
2021/04/15 08:56:31;;;;;;;10.37;9.40;;;9.80;98.60;;;;;;5033014;28;20630;-72
2021/04/15 08:59:36;;;;;;;12.77;10.93;;;9.60;99.40;;;;;;5057444;28;20518;-74
2021/04/15 09:02:24;;;;;;;10.70;9.60;;;9.40;99.90;;;;;;5048560;28;20479;-73
2021/04/15 09:04:59;;;;;;;11.73;10.27;;;9.20;99.90;;;;;;5049142;28;20982;-75
2021/04/15 09:07:51;;;;;;;12.17;10.30;;;9.10;99.90;;;;;;5033091;28;20551;-72
2021/04/15 09:10:22;;;;;;;15.40;12.70;;;9.20;99.90;;;;;;5033462;28;20440;-73
2021/04/15 09:13:28;;;;;;;17.63;13.23;;;9.10;99.90;;;;;;5033320;28;20451;-74
2021/04/15 09:16:07;;;;;;;12.87;11.57;;;8.70;99.90;;;;;;5023270;28;20475;-73
2021/04/15 09:18:56;;;;;;;14.13;10.90;;;8.60;99.90;;;;;;5048982;28;20960;-75
2021/04/15 09:21:51;;;;;;;11.40;10.30;;;8.50;99.90;;;;;;5048194;28;20463;-75
2021/04/15 09:24:42;;;;;;;12.27;10.90;;;8.50;99.90;;;;;;5049338;28;20437;-74
2021/04/15 09:27:42;;;;;;;8.20;6.63;;;9.00;99.90;;;;;;5032770;28;20481;-74
2021/04/15 09:30:38;;;;;;;10.30;5.67;;;9.20;98.40;;;;;;5032436;28;20444;-74
2021/04/15 09:33:28;;;;;;;7.77;5.77;;;9.40;94.50;;;;;;5033235;28;20859;-72
2021/04/15 09:36:02;;;;;;;9.27;5.67;;;9.00;96.30;;;;;;5032291;28;20468;-74
2021/04/15 09:38:57;;;;;;;7.60;5.55;;;8.80;98.00;;;;;;5031685;28;20449;-77
2021/04/15 09:41:58;;;;;;;6.53;4.80;;;8.60;98.50;;;;;;5031266;28;20229;-73
2021/04/15 09:45:00;;;;;;;6.95;5.90;;;8.40;98.70;;;;;;5032891;28;20702;-75
2021/04/15 09:48:07;;;;;;;7.32;5.95;;;8.20;99.90;;;;;;5032222;28;20225;-75
2021/04/15 09:50:54;;;;;;;5.85;5.25;;;8.10;99.60;;;;;;5015559;28;20196;-75
2021/04/15 09:54:00;;;;;;;6.20;5.50;;;8.00;99.70;;;;;;5033058;28;20544;-73
2021/04/15 09:56:39;;;;;;;8.13;6.65;;;7.90;98.50;;;;;;5031819;28;20229;-73
2021/04/15 09:59:35;;;;;;;9.27;6.78;;;7.90;99.90;;;;;;5049374;28;20200;-75
2021/04/15 10:02:25;;;;;;;9.38;7.65;;;7.80;99.90;;;;;;5030866;28;20595;-76
2021/04/15 10:05:07;;;;;;;10.10;9.10;;;7.80;97.90;;;;;;5032682;28;20197;-72
2021/04/15 10:07:47;;;;;;;10.43;9.07;;;7.70;99.90;;;;;;5030777;28;20568;-76
2021/04/15 10:10:23;;;;;;;10.27;8.23;;;7.70;99.90;;;;;;5032456;28;20706;-73
2021/04/15 10:13:28;;;;;;;12.25;10.23;;;7.80;98.60;;;;;;5047325;28;20208;-76
2021/04/15 10:16:15;;;;;;;13.98;10.50;;;7.80;99.60;;;;;;5039479;28;20229;-74
2021/04/15 10:19:10;;;;;;;11.15;8.93;;;7.80;98.60;;;;;;5063333;28;20247;-75
2021/04/15 10:21:56;;;;;;;12.18;10.63;;;7.80;99.20;;;;;;5052092;28;20223;-73
2021/04/15 10:24:41;;;;;;;12.63;11.27;;;7.90;98.00;;;;;;5047507;28;20432;-75
2021/04/15 10:27:45;;;;;;;10.63;9.27;;;8.00;98.40;;;;;;5030342;28;20266;-76
2021/04/15 10:30:30;;;;;;;11.38;10.23;;;8.00;96.90;;;;;;5046520;28;20189;-74
2021/04/15 10:33:22;;;;;;;11.35;10.32;;;8.00;98.70;;;;;;5031022;28;20223;-73
2021/04/15 10:36:16;;;;;;;12.65;11.30;;;8.20;99.90;;;;;;5031319;28;20312;-75
2021/04/15 10:39:07;;;;;;;9.70;8.70;;;8.30;98.80;;;;;;5047432;28;20181;-74
2021/04/15 10:42:07;;;;;;;8.82;7.57;;;8.50;99.60;;;;;;5030320;28;20266;-73
2021/04/15 10:44:50;;;;;;;10.45;7.13;;;8.60;98.60;;;;;;5031626;28;20276;-73
2021/04/15 10:47:38;;;;;;;5.40;4.90;;;8.70;96.00;;;;;;5046796;28;20223;-73
2021/04/15 10:50:10;;;;;;;6.60;4.63;;;8.90;92.90;;;;;;5031997;28;20191;-73
2021/04/15 10:52:48;;;;;;;6.00;4.85;;;8.80;90.90;;;;;;5030100;28;20229;-72
2021/04/15 10:55:24;;;;;;;5.85;5.25;;;8.80;87.80;;;;;;5031550;28;20212;-74
2021/04/15 10:57:52;;;;;;;5.10;4.60;;;8.60;91.70;;;;;;5030420;28;20219;-74
2021/04/15 11:00:26;;;;;;;5.75;4.82;;;8.60;90.80;;;;;;5046114;28;20257;-74
2021/04/15 11:03:14;;;;;;;5.47;4.57;;;8.50;92.30;;;;;;5031957;28;20570;-74
2021/04/15 11:05:50;;;;;;;8.05;6.38;;;8.40;91.20;;;;;;5032330;28;20217;-73
2021/04/15 11:08:37;;;;;;;8.25;6.47;;;8.50;93.00;;;;;;5050910;28;20172;-74
2021/04/15 11:11:12;;;;;;;7.25;5.90;;;8.60;94.40;;;;;;5030800;28;20216;-73
2021/04/15 11:13:39;;;;;;;8.15;6.32;;;8.90;91.80;;;;;;5031922;28;20560;-73
2021/04/15 11:16:24;;;;;;;7.60;6.82;;;9.00;91.40;;;;;;5039050;28;20776;-73
2021/04/15 11:18:51;;;;;;;8.33;6.17;;;9.10;91.50;;;;;;5031881;28;20189;-72
2021/04/15 11:21:20;;;;;;;9.50;6.32;;;9.20;90.10;;;;;;5031094;28;20543;-73
2021/04/15 11:23:49;;;;;;;7.30;6.60;;;9.20;87.30;;;;;;5031547;28;20213;-74
2021/04/15 11:26:18;;;;;;;10.53;6.97;;;9.30;84.70;;;;;;5030796;28;20471;-72
2021/04/15 11:28:46;;;;;;;8.80;6.40;;;9.30;87.90;;;;;;5047050;28;20426;-73
2021/04/15 11:31:12;;;;;;;6.60;5.90;;;9.40;88.20;;;;;;5013728;28;20491;-72
2021/04/15 11:33:42;;;;;;;7.10;6.50;;;9.60;89.70;;;;;;5031571;28;20516;-73
2021/04/15 11:36:23;;;;;;;6.57;5.90;;;9.80;83.10;;;;;;5033622;28;20474;-75
2021/04/15 11:39:16;;;;;;;8.87;5.30;;;10.00;80.70;;;;;;5030283;28;20802;-73
2021/04/15 11:41:42;;;;;;;8.23;5.90;;;10.10;78.20;;;;;;5030969;28;20867;-73
2021/04/15 11:44:14;;;;;;;7.80;6.03;;;10.20;71.80;;;;;;5031299;28;20889;-74
2021/04/15 11:46:51;;;;;;;8.10;5.37;;;10.20;75.90;;;;;;5046182;28;20549;-74
2021/04/15 11:49:41;;;;;;;6.10;5.47;;;10.10;71.10;;;;;;5030334;28;20850;-74
2021/04/15 11:52:07;;;;;;;6.70;6.13;;;10.00;70.60;;;;;;5046314;28;20463;-72
2021/04/15 11:54:52;;;;;;;6.57;5.97;;;9.80;71.00;;;;;;5030022;28;20452;-73
2021/04/15 11:57:18;;;;;;;7.30;6.60;;;9.70;77.80;;;;;;5030738;28;20478;-73
2021/04/15 12:00:00;;;;;;;7.47;6.20;;;9.60;86.80;;;;;;5029938;28;20543;-74
2021/04/15 12:02:30;;;;;;;8.30;6.80;;;9.40;90.00;;;;;;5030746;28;20493;-73
2021/04/15 12:05:27;;;;;;;8.40;6.23;;;9.40;89.80;;;;;;5031257;28;20469;-73
2021/04/15 12:08:02;;;;;;;7.17;6.10;;;9.50;87.00;;;;;;5065796;28;20436;-73
2021/04/15 12:10:31;;;;;;;7.05;6.20;;;9.50;85.20;;;;;;5049058;28;20523;-73
2021/04/15 12:13:12;;;;;;;6.93;6.27;;;9.50;78.70;;;;;;5054027;28;20184;-73
2021/04/15 12:15:53;;;;;;;7.83;7.03;;;9.50;78.40;;;;;;5023968;28;20519;-73
2021/04/15 12:18:40;;;;;;;7.73;6.93;;;9.60;82.10;;;;;;5033719;28;20429;-73
2021/04/15 12:21:15;;;;;;;8.80;7.30;;;9.70;82.20;;;;;;5042251;28;20470;-75
2021/04/15 12:23:50;;;;;;;8.50;6.53;;;9.80;79.30;;;;;;5049432;28;20468;-74
2021/04/15 12:26:44;;;;;;;5.73;5.13;;;9.90;76.10;;;;;;5054914;28;20999;-72
2021/04/15 12:29:14;;;;;;;5.97;5.37;;;10.10;75.30;;;;;;5053048;28;20427;-74
2021/04/15 12:31:46;;;;;;;7.50;5.70;;;10.20;71.30;;;;;;5047980;28;20813;-73
2021/04/15 12:34:33;;;;;;;6.90;6.30;;;10.40;72.70;;;;;;5049858;28;20967;-73
2021/04/15 12:37:29;;;;;;;7.67;5.10;;;10.70;73.30;;;;;;5049044;28;20483;-73
2021/04/15 12:40:09;;;;;;;4.87;4.47;;;10.80;69.70;;;;;;5035355;28;20446;-73
2021/04/15 12:42:42;;;;;;;5.37;4.90;;;10.80;62.40;;;;;;5033043;28;21098;-73
2021/04/15 12:45:32;;;;;;;6.23;4.10;;;10.70;66.00;;;;;;5033872;28;20829;-73
2021/04/15 12:48:00;;;;;;;7.27;4.43;;;10.70;61.90;;;;;;5033026;28;20787;-74
2021/04/15 12:50:29;;;;;;;5.97;5.37;;;10.70;61.00;;;;;;5032085;28;20424;-73
2021/04/15 12:52:57;;;;;;;7.33;5.30;;;10.60;64.60;;;;;;5033515;28;20456;-73
2021/04/15 12:55:26;;;;;;;7.00;5.43;;;10.70;69.60;;;;;;5032451;28;20480;-74
2021/04/15 12:57:56;;;;;;;5.43;4.93;;;10.80;70.20;;;;;;5033226;28;20436;-73
2021/04/15 13:00:46;;;;;;;4.80;4.40;;;11.00;72.50;;;;;;5018950;28;20444;-73
2021/04/15 13:03:26;;;;;;;9.63;6.30;;;11.20;64.80;;;;;;5033877;28;20566;-74
2021/04/15 13:05:54;;;;;;;17.57;7.07;;;11.40;63.70;;;;;;5033166;28;20544;-73
2021/04/15 13:08:33;;;;;;;19.50;6.60;;;11.50;67.70;;;;;;5033768;28;20946;-74
2021/04/15 13:11:05;;;;;;;8.50;5.20;;;11.50;62.10;;;;;;5046201;28;20459;-73
2021/04/15 13:13:41;;;;;;;7.37;5.70;;;11.60;57.70;;;;;;5069111;28;20430;-72
2021/04/15 13:16:33;;;;;;;6.00;5.40;;;11.50;57.60;;;;;;5050502;28;20988;-73
2021/04/15 13:19:02;;;;;;;7.50;4.73;;;11.50;61.00;;;;;;5068984;28;20422;-72
2021/04/15 13:21:34;;;;;;;8.00;5.00;;;11.40;67.40;;;;;;5068344;28;20455;-72
2021/04/15 13:24:21;;;;;;;7.80;4.33;;;11.30;63.10;;;;;;5043754;28;20477;-73
2021/04/15 13:26:48;;;;;;;4.43;4.03;;;11.30;62.10;;;;;;5045744;28;20547;-73
2021/04/15 13:29:31;;;;;;;8.17;5.10;;;11.20;61.80;;;;;;5051058;28;21003;-74
2021/04/15 13:32:00;;;;;;;5.37;4.87;;;11.20;62.90;;;;;;5052152;28;20931;-72
2021/04/15 13:34:58;;;;;;;5.80;4.80;;;11.10;64.40;;;;;;5049853;28;20426;-73
2021/04/15 13:37:41;;;;;;;7.80;4.50;;;11.10;68.50;;;;;;5047875;28;20450;-74
2021/04/15 13:40:19;;;;;;;8.40;4.83;;;11.10;68.90;;;;;;5032395;28;20454;-74
2021/04/15 13:42:45;;;;;;;6.03;5.10;;;11.30;67.20;;;;;;5031488;28;20468;-73
2021/04/15 13:45:36;;;;;;;5.90;4.83;;;11.40;64.70;;;;;;5048030;28;20474;-73
2021/04/15 13:48:03;;;;;;;7.40;5.17;;;11.60;64.40;;;;;;5055528;28;20453;-73